Terminal Aerodrome Forecast
Issued by NWS Charleston, WV

Current Version | Previous Version | Text Only | Print | Product List | Glossary Off
Versions: 1 2 3 4 5 6 7 8 9 10 11 12 13 14 15 16 17 18 19 20 21 22 23 24

004
FTUS41 KRLX 230543
TAFPKB
TAF
KPKB 230543Z 2306/2406 00000KT P6SM FEW200
     FM230900 00000KT 4SM BR FEW200
      TEMPO 2309/2313 1/2SM FG OVC001
     FM231300 00000KT 5SM BR SCT001
     FM231400 00000KT P6SM FEW250
     FM231700 00000KT P6SM FEW050
     FM240100 00000KT P6SM FEW250=

USA.gov is the U.S. government's official web portal to all federal, state and local government web resources and services.